Time;durP1;ratioP1;P1;durP2;ratioP2;P2;SDS_P1;SDS_P2;PMS_P1;PMS_P2;Temp;Humidity;BMP_temperature;BMP_pressure;BME280_temperature;BME280_humidity;BME280_pressure;Samples;Min_cycle;Max_cycle;Signal;HPM_P1;HPM_P2
2023/06/08 00:01:38;;;;;;;8.07;6.00;;;22.60;63.40;;;;;;5019842;28;20519;-70
2023/06/08 00:04:05;;;;;;;6.60;6.00;;;22.60;63.60;;;;;;5016877;28;20177;-68
2023/06/08 00:06:33;;;;;;;6.20;5.70;;;22.50;64.00;;;;;;5021468;28;20180;-68
2023/06/08 00:09:01;;;;;;;7.13;6.53;;;22.50;64.30;;;;;;5015749;28;20460;-68
2023/06/08 00:11:28;;;;;;;6.33;5.83;;;22.50;64.00;;;;;;5018957;28;20427;-68
2023/06/08 00:13:54;;;;;;;6.40;5.80;;;22.50;63.90;;;;;;5018092;28;20425;-67
2023/06/08 00:16:20;;;;;;;6.97;6.37;;;22.50;64.30;;;;;;5018514;28;20481;-67
2023/06/08 00:18:46;;;;;;;8.20;5.63;;;22.50;64.30;;;;;;5013116;28;20982;-68
2023/06/08 00:21:12;;;;;;;6.50;5.90;;;22.40;64.70;;;;;;5017642;28;20181;-67
2023/06/08 00:23:39;;;;;;;7.10;5.70;;;22.40;65.00;;;;;;5017813;28;20278;-67
2023/06/08 00:26:05;;;;;;;6.07;5.57;;;22.30;65.10;;;;;;5015365;28;20482;-67
2023/06/08 00:28:31;;;;;;;6.73;6.23;;;22.30;65.10;;;;;;5016834;28;20447;-68
2023/06/08 00:30:57;;;;;;;7.53;6.30;;;22.20;65.40;;;;;;5013807;28;20442;-68
2023/06/08 00:33:23;;;;;;;6.97;5.90;;;22.10;65.80;;;;;;5018833;28;20195;-68
2023/06/08 00:35:49;;;;;;;6.10;5.60;;;22.00;66.20;;;;;;5020329;28;20677;-68
2023/06/08 00:38:15;;;;;;;6.10;5.50;;;22.00;66.20;;;;;;5018979;28;20991;-67
2023/06/08 00:40:42;;;;;;;6.63;6.03;;;22.10;66.00;;;;;;5018537;28;20553;-67
2023/06/08 00:43:08;;;;;;;10.23;6.20;;;22.10;65.90;;;;;;5008984;28;20965;-67
2023/06/08 00:45:34;;;;;;;9.70;6.57;;;22.10;66.10;;;;;;5011581;28;20446;-67
2023/06/08 00:48:00;;;;;;;6.90;6.20;;;22.10;66.50;;;;;;5015681;28;20191;-67
2023/06/08 00:50:26;;;;;;;7.23;6.53;;;22.00;66.50;;;;;;5020055;28;20729;-67
2023/06/08 00:52:52;;;;;;;6.60;6.00;;;22.00;67.00;;;;;;5015533;28;20439;-67
2023/06/08 00:55:19;;;;;;;7.20;6.50;;;22.00;67.20;;;;;;5008315;28;20184;-67
2023/06/08 00:57:47;;;;;;;7.33;6.60;;;22.00;67.40;;;;;;5011145;28;20650;-67
2023/06/08 01:00:14;;;;;;;6.30;5.80;;;22.00;67.40;;;;;;5014921;28;21068;-67
2023/06/08 01:02:41;;;;;;;5.83;5.33;;;22.00;67.40;;;;;;5017993;28;20497;-67
2023/06/08 01:05:07;;;;;;;6.17;5.67;;;22.00;67.70;;;;;;5010810;28;20440;-68
2023/06/08 01:07:56;;;;;;;7.57;6.70;;;22.00;67.90;;;;;;5013889;28;20893;-67
2023/06/08 01:10:28;;;;;;;6.53;5.83;;;21.90;68.00;;;;;;5010266;28;20446;-67
2023/06/08 01:13:11;;;;;;;6.73;6.13;;;21.90;68.10;;;;;;5012670;28;20517;-67
2023/06/08 01:15:42;;;;;;;6.77;6.10;;;21.90;68.30;;;;;;5015337;28;20917;-67
2023/06/08 01:18:09;;;;;;;6.73;6.13;;;21.90;68.60;;;;;;5012840;28;20964;-67
2023/06/08 01:20:47;;;;;;;7.53;6.50;;;21.90;68.70;;;;;;5012254;28;20467;-67
2023/06/08 01:23:37;;;;;;;8.13;6.50;;;21.90;69.10;;;;;;5010791;28;20451;-67
2023/06/08 01:26:04;;;;;;;7.90;6.97;;;21.80;68.90;;;;;;5009543;28;20429;-67
2023/06/08 01:28:30;;;;;;;7.90;7.20;;;21.80;69.70;;;;;;5013678;28;20462;-67
2023/06/08 01:31:01;;;;;;;8.23;7.43;;;21.80;70.00;;;;;;5010281;28;20432;-67
2023/06/08 01:33:29;;;;;;;8.50;7.67;;;21.80;70.30;;;;;;5015075;28;20536;-67
2023/06/08 01:36:24;;;;;;;7.80;7.00;;;21.80;70.70;;;;;;5011200;28;20439;-67
2023/06/08 01:38:59;;;;;;;8.40;7.70;;;21.80;71.20;;;;;;5016126;28;20479;-68
2023/06/08 01:41:28;;;;;;;8.00;7.30;;;21.80;71.70;;;;;;5016673;28;20438;-68
2023/06/08 01:43:56;;;;;;;7.60;6.90;;;21.70;71.90;;;;;;5014062;28;20438;-67
2023/06/08 01:46:24;;;;;;;7.60;6.90;;;21.70;71.90;;;;;;5011538;28;20450;-67
2023/06/08 01:48:51;;;;;;;6.47;5.87;;;21.70;72.10;;;;;;5012843;28;20522;-68
2023/06/08 01:51:19;;;;;;;7.27;6.57;;;21.70;72.30;;;;;;5015687;28;20423;-67
2023/06/08 01:53:44;;;;;;;6.90;6.27;;;21.70;72.40;;;;;;5019687;28;20940;-68
2023/06/08 01:56:10;;;;;;;7.37;6.73;;;21.70;72.30;;;;;;5017699;28;20466;-68
2023/06/08 01:58:36;;;;;;;7.77;7.07;;;21.70;72.20;;;;;;5008904;28;20200;-68
2023/06/08 02:01:01;;;;;;;7.43;6.73;;;21.70;72.30;;;;;;5011525;28;20185;-69
2023/06/08 02:03:27;;;;;;;8.07;7.27;;;21.60;72.30;;;;;;5010333;28;20189;-68
2023/06/08 02:05:52;;;;;;;7.10;6.50;;;21.60;72.20;;;;;;5014520;28;20644;-69
2023/06/08 02:08:18;;;;;;;7.40;6.70;;;21.60;72.60;;;;;;5016190;28;20591;-68
2023/06/08 02:10:43;;;;;;;7.30;6.60;;;21.60;72.70;;;;;;5016762;28;20203;-68
2023/06/08 02:13:09;;;;;;;7.43;6.73;;;21.50;72.70;;;;;;5012693;28;20340;-69
2023/06/08 02:15:35;;;;;;;6.97;6.27;;;21.50;72.90;;;;;;5018073;28;20266;-68
2023/06/08 02:18:01;;;;;;;6.87;6.27;;;21.50;73.10;;;;;;5019881;28;20212;-68
2023/06/08 02:20:27;;;;;;;6.87;6.17;;;21.50;73.20;;;;;;5012827;28;20205;-68
2023/06/08 02:22:52;;;;;;;6.40;5.90;;;21.40;73.20;;;;;;5014679;28;20431;-67
2023/06/08 02:25:18;;;;;;;8.00;7.13;;;21.40;73.60;;;;;;5005370;28;20185;-68
2023/06/08 02:27:44;;;;;;;7.83;6.50;;;21.40;73.60;;;;;;5018029;28;20181;-67
2023/06/08 02:30:11;;;;;;;6.70;6.10;;;21.40;73.50;;;;;;5011805;28;20966;-67
2023/06/08 02:32:41;;;;;;;6.50;5.90;;;21.30;73.40;;;;;;5015618;28;20195;-68
2023/06/08 02:35:07;;;;;;;6.73;5.30;;;21.30;73.60;;;;;;5018034;28;20483;-68
2023/06/08 02:37:34;;;;;;;6.50;5.93;;;21.30;73.60;;;;;;5006890;28;21135;-68
2023/06/08 02:40:00;;;;;;;6.60;6.00;;;21.20;73.80;;;;;;5006740;28;20520;-68
2023/06/08 02:42:26;;;;;;;5.60;5.10;;;21.20;73.90;;;;;;5011192;28;20434;-68
2023/06/08 02:44:52;;;;;;;6.30;5.80;;;21.20;73.80;;;;;;5009011;28;20443;-67
2023/06/08 02:47:17;;;;;;;6.03;5.53;;;21.10;73.70;;;;;;5014036;28;20181;-67
2023/06/08 02:49:43;;;;;;;5.90;5.40;;;21.10;73.80;;;;;;5016302;28;20287;-68
2023/06/08 02:52:09;;;;;;;6.20;5.70;;;21.10;73.80;;;;;;5014587;28;20185;-68
2023/06/08 02:54:36;;;;;;;6.10;5.60;;;21.10;73.80;;;;;;5006804;28;20441;-68
2023/06/08 02:57:01;;;;;;;6.23;5.73;;;21.00;73.70;;;;;;5015006;28;20678;-68
2023/06/08 02:59:29;;;;;;;6.60;6.00;;;21.00;73.80;;;;;;5013200;28;20735;-68
2023/06/08 03:01:56;;;;;;;6.53;5.87;;;20.90;73.90;;;;;;5018700;28;20227;-68
2023/06/08 03:04:23;;;;;;;6.00;5.50;;;20.90;74.20;;;;;;5016845;28;20439;-69
2023/06/08 03:06:55;;;;;;;6.63;6.03;;;20.80;74.30;;;;;;5016182;28;20427;-68
2023/06/08 03:09:25;;;;;;;7.23;6.00;;;20.80;74.90;;;;;;5015356;28;21009;-68
2023/06/08 03:11:51;;;;;;;6.77;6.07;;;20.70;75.20;;;;;;5014569;28;20434;-69
2023/06/08 03:14:18;;;;;;;6.47;5.87;;;20.70;75.60;;;;;;5013655;28;20427;-68
2023/06/08 03:16:45;;;;;;;7.00;6.30;;;20.70;76.90;;;;;;5015826;28;20497;-68
2023/06/08 03:19:12;;;;;;;6.77;6.17;;;20.60;76.40;;;;;;5017852;28;20894;-69
2023/06/08 03:21:38;;;;;;;6.90;6.20;;;20.60;77.00;;;;;;5014841;28;20493;-69
2023/06/08 03:24:04;;;;;;;6.93;6.20;;;20.60;77.20;;;;;;5019141;28;20446;-68
2023/06/08 03:26:30;;;;;;;6.40;5.80;;;20.50;77.30;;;;;;5013486;28;20983;-68
2023/06/08 03:28:55;;;;;;;6.70;6.10;;;20.50;77.80;;;;;;5014586;28;20464;-69
2023/06/08 03:31:22;;;;;;;6.80;6.20;;;20.40;78.10;;;;;;5011127;28;20187;-69
2023/06/08 03:33:48;;;;;;;6.70;6.20;;;20.40;78.60;;;;;;5013095;28;20211;-69
2023/06/08 03:36:14;;;;;;;6.60;5.90;;;20.30;79.10;;;;;;5013901;28;20504;-69
2023/06/08 03:38:39;;;;;;;6.70;6.03;;;20.30;79.50;;;;;;5014591;28;20622;-69
2023/06/08 03:41:05;;;;;;;6.47;5.93;;;20.30;80.00;;;;;;5012787;28;20189;-69
2023/06/08 03:43:30;;;;;;;6.60;6.00;;;20.30;80.40;;;;;;5013894;28;20205;-69
2023/06/08 03:45:56;;;;;;;8.13;6.43;;;20.20;81.20;;;;;;5012650;28;20195;-69
2023/06/08 03:48:21;;;;;;;8.53;7.00;;;20.20;81.80;;;;;;5020963;28;20208;-69
2023/06/08 03:50:47;;;;;;;7.00;6.30;;;20.20;82.40;;;;;;5019726;28;20184;-69
2023/06/08 03:53:13;;;;;;;7.20;6.50;;;20.20;82.90;;;;;;5015952;28;20708;-69
2023/06/08 03:55:39;;;;;;;7.70;7.07;;;20.20;83.30;;;;;;5012241;28;21046;-69
2023/06/08 03:58:05;;;;;;;7.73;7.03;;;20.20;83.70;;;;;;5011900;28;21229;-69
2023/06/08 04:00:30;;;;;;;7.33;6.73;;;20.20;84.10;;;;;;5035304;28;20465;-69
2023/06/08 04:02:57;;;;;;;7.73;7.03;;;20.10;84.50;;;;;;5023287;28;20184;-69
2023/06/08 04:05:22;;;;;;;7.77;6.80;;;20.10;84.90;;;;;;5012163;28;20186;-68
2023/06/08 04:07:50;;;;;;;6.70;6.10;;;20.10;85.10;;;;;;5017234;28;20512;-69
2023/06/08 04:10:16;;;;;;;6.60;5.90;;;20.10;85.40;;;;;;5015213;28;20287;-69
2023/06/08 04:12:42;;;;;;;6.97;6.37;;;20.00;86.40;;;;;;5023278;28;20573;-69
2023/06/08 04:15:08;;;;;;;6.40;5.80;;;20.00;85.60;;;;;;5016025;28;20262;-69
2023/06/08 04:17:34;;;;;;;7.13;6.00;;;20.00;85.80;;;;;;5022269;28;20293;-69
2023/06/08 04:20:00;;;;;;;5.93;5.43;;;20.00;85.70;;;;;;5014863;28;20475;-69
2023/06/08 04:22:27;;;;;;;7.73;6.93;;;19.90;85.90;;;;;;5022189;28;20496;-69
2023/06/08 04:24:52;;;;;;;7.80;6.10;;;19.90;86.10;;;;;;5017529;28;20836;-69
2023/06/08 04:27:19;;;;;;;6.70;6.10;;;19.90;86.40;;;;;;5019698;28;20439;-69
2023/06/08 04:29:45;;;;;;;6.20;5.60;;;19.90;86.50;;;;;;5017112;28;20896;-68
2023/06/08 04:32:11;;;;;;;6.43;5.93;;;19.90;86.60;;;;;;5019230;28;21210;-68
2023/06/08 04:34:37;;;;;;;6.47;5.87;;;19.90;86.60;;;;;;5014287;28;20234;-68
2023/06/08 04:37:02;;;;;;;6.40;5.80;;;19.90;86.60;;;;;;5014258;28;20440;-68
2023/06/08 04:39:28;;;;;;;6.27;5.70;;;19.90;86.70;;;;;;5022462;28;20209;-68
2023/06/08 04:41:55;;;;;;;6.87;6.20;;;19.90;86.60;;;;;;5017539;28;20182;-68
2023/06/08 04:44:20;;;;;;;6.40;5.80;;;19.90;86.60;;;;;;5015961;28;20172;-68
2023/06/08 04:46:46;;;;;;;8.17;6.57;;;19.90;86.70;;;;;;5016772;28;20431;-68
2023/06/08 04:49:14;;;;;;;7.10;6.50;;;19.90;86.70;;;;;;5018628;28;20220;-68
2023/06/08 04:51:45;;;;;;;6.87;6.17;;;19.90;86.80;;;;;;5014391;28;20423;-68
2023/06/08 04:54:13;;;;;;;6.97;6.27;;;20.00;87.00;;;;;;5017732;28;20435;-68
2023/06/08 04:56:42;;;;;;;6.00;5.50;;;20.00;87.20;;;;;;5013989;28;20986;-68
2023/06/08 04:59:08;;;;;;;6.43;5.83;;;20.00;87.20;;;;;;5012955;28;20561;-68
2023/06/08 05:01:34;;;;;;;6.30;5.80;;;20.10;87.30;;;;;;5013287;28;20442;-68
2023/06/08 05:04:01;;;;;;;6.90;6.37;;;20.20;87.20;;;;;;5014033;28;20444;-68
2023/06/08 05:06:27;;;;;;;7.40;6.30;;;20.20;86.90;;;;;;5012501;28;20574;-68
2023/06/08 05:08:52;;;;;;;9.33;6.70;;;20.30;86.90;;;;;;5010656;28;21209;-68
2023/06/08 05:11:18;;;;;;;7.83;7.07;;;20.40;87.20;;;;;;5013229;28;20642;-68
2023/06/08 05:13:43;;;;;;;7.07;6.47;;;20.40;87.20;;;;;;5016091;28;20189;-68
2023/06/08 05:16:10;;;;;;;7.47;6.87;;;20.40;87.40;;;;;;5015082;28;20642;-68
2023/06/08 05:18:36;;;;;;;7.87;7.17;;;20.50;88.00;;;;;;5014784;28;20655;-68
2023/06/08 05:21:02;;;;;;;8.30;7.60;;;20.50;88.30;;;;;;5009740;28;20507;-68
2023/06/08 05:23:27;;;;;;;8.37;7.60;;;20.50;88.40;;;;;;5008287;28;20506;-68
2023/06/08 05:25:53;;;;;;;10.13;7.63;;;20.60;88.40;;;;;;5011100;28;20184;-68
2023/06/08 05:28:18;;;;;;;10.00;7.77;;;20.60;89.20;;;;;;5017621;28;20659;-69
2023/06/08 05:30:44;;;;;;;8.30;7.50;;;20.60;90.10;;;;;;5020272;28;20198;-68
2023/06/08 05:33:10;;;;;;;10.47;8.80;;;20.60;90.20;;;;;;5018667;28;20193;-69
2023/06/08 05:35:36;;;;;;;10.10;9.10;;;20.70;90.80;;;;;;5016399;28;20181;-68
2023/06/08 05:38:02;;;;;;;9.00;8.13;;;20.60;91.80;;;;;;5026346;28;20438;-69
2023/06/08 05:40:27;;;;;;;9.70;8.90;;;20.70;91.90;;;;;;5012648;28;20209;-69
2023/06/08 05:42:53;;;;;;;9.87;8.97;;;20.70;92.40;;;;;;5013176;28;20257;-68
2023/06/08 05:45:19;;;;;;;14.53;10.07;;;20.60;92.90;;;;;;5012005;28;20185;-68
2023/06/08 05:47:44;;;;;;;10.93;9.63;;;20.60;92.90;;;;;;5010720;28;20180;-69
2023/06/08 05:50:10;;;;;;;10.97;9.97;;;20.60;93.20;;;;;;5007975;28;20854;-69
2023/06/08 05:52:36;;;;;;;11.20;10.30;;;20.60;93.90;;;;;;5012685;28;20180;-68
2023/06/08 05:55:02;;;;;;;10.40;9.50;;;20.60;94.20;;;;;;5007718;28;20185;-69
2023/06/08 05:57:28;;;;;;;11.20;10.20;;;20.60;94.50;;;;;;5010996;28;20564;-69
2023/06/08 05:59:53;;;;;;;11.10;10.07;;;20.70;94.70;;;;;;5016920;28;20482;-69
2023/06/08 06:02:19;;;;;;;11.30;10.30;;;20.60;94.80;;;;;;5014762;28;20177;-70
2023/06/08 06:04:45;;;;;;;11.00;10.00;;;20.70;94.80;;;;;;5014944;28;21590;-69
2023/06/08 06:07:10;;;;;;;11.13;10.07;;;20.70;95.40;;;;;;5008079;28;20192;-69
2023/06/08 06:09:36;;;;;;;11.67;10.57;;;20.70;95.60;;;;;;5014163;28;20945;-69
2023/06/08 06:12:02;;;;;;;11.67;10.50;;;20.80;95.50;;;;;;5012346;28;20188;-69
2023/06/08 06:14:39;;;;;;;11.10;10.10;;;20.80;95.90;;;;;;5008938;28;20185;-69
2023/06/08 06:17:06;;;;;;;11.70;10.60;;;20.80;96.00;;;;;;5014615;28;20897;-69
2023/06/08 06:19:36;;;;;;;12.13;11.13;;;20.80;96.60;;;;;;5012733;28;20544;-69
2023/06/08 06:22:02;;;;;;;11.53;10.40;;;20.80;96.40;;;;;;5013154;28;20427;-67
2023/06/08 06:24:31;;;;;;;12.07;10.97;;;20.80;96.50;;;;;;5012623;28;21195;-68
2023/06/08 06:26:57;;;;;;;11.83;10.73;;;20.90;96.60;;;;;;5018688;28;20496;-68
2023/06/08 06:29:24;;;;;;;12.80;11.60;;;20.90;96.70;;;;;;5016745;28;20455;-68
2023/06/08 06:31:50;;;;;;;12.30;11.20;;;21.00;96.90;;;;;;5019831;28;20811;-68
2023/06/08 06:34:15;;;;;;;12.40;11.30;;;21.00;97.30;;;;;;5013821;28;20428;-68
2023/06/08 06:36:41;;;;;;;13.43;12.13;;;21.10;97.40;;;;;;5022226;28;20208;-68
2023/06/08 06:39:07;;;;;;;13.97;12.10;;;21.10;97.50;;;;;;5016195;28;20773;-70
2023/06/08 06:41:32;;;;;;;13.60;12.40;;;21.10;97.90;;;;;;5014482;28;20388;-68
2023/06/08 06:43:58;;;;;;;13.10;11.90;;;21.10;98.00;;;;;;5019149;28;20180;-68
2023/06/08 06:46:25;;;;;;;13.13;11.87;;;21.10;98.60;;;;;;5020968;28;20177;-68
2023/06/08 06:48:51;;;;;;;13.30;12.10;;;21.20;98.70;;;;;;5019851;28;20708;-68
2023/06/08 06:51:16;;;;;;;13.60;12.30;;;21.20;99.10;;;;;;5018846;28;20511;-68
2023/06/08 06:53:42;;;;;;;13.40;12.13;;;21.20;98.70;;;;;;5020896;28;20287;-68
2023/06/08 06:56:07;;;;;;;12.90;11.70;;;21.30;98.60;;;;;;5017456;28;20188;-68
2023/06/08 06:58:33;;;;;;;13.97;12.67;;;21.30;98.50;;;;;;5016433;28;20208;-68
2023/06/08 07:01:01;;;;;;;13.93;12.63;;;21.30;98.70;;;;;;5012958;28;20258;-68
2023/06/08 07:03:27;;;;;;;13.10;11.90;;;21.30;99.00;;;;;;5016962;28;20177;-68
2023/06/08 07:05:58;;;;;;;13.80;12.60;;;21.30;99.30;;;;;;5016058;28;20998;-69
2023/06/08 07:08:26;;;;;;;15.80;14.40;;;21.30;99.40;;;;;;5020715;28;20451;-68
2023/06/08 07:10:52;;;;;;;17.90;16.27;;;21.40;99.50;;;;;;5019068;28;20480;-68
2023/06/08 07:13:18;;;;;;;15.57;14.10;;;21.40;99.70;;;;;;5013823;28;20447;-68
2023/06/08 07:15:44;;;;;;;18.50;16.20;;;21.40;99.90;;;;;;5011428;28;20200;-69
2023/06/08 07:18:09;;;;;;;13.93;12.77;;;21.40;99.90;;;;;;5017442;28;20439;-69
2023/06/08 07:20:35;;;;;;;13.13;12.00;;;21.40;99.90;;;;;;5020341;28;20355;-69
2023/06/08 07:23:00;;;;;;;17.20;15.37;;;21.40;99.90;;;;;;5023826;28;20557;-68
2023/06/08 07:25:26;;;;;;;15.93;14.23;;;21.40;99.90;;;;;;5014589;28;20188;-68
2023/06/08 07:27:52;;;;;;;13.97;12.57;;;21.40;99.90;;;;;;5014196;28;20212;-68
2023/06/08 07:30:17;;;;;;;14.50;13.10;;;21.40;99.90;;;;;;5010694;28;20219;-68
2023/06/08 07:32:46;;;;;;;13.50;12.40;;;21.50;99.90;;;;;;5017137;28;20239;-68
2023/06/08 07:35:12;;;;;;;12.70;11.63;;;21.50;99.90;;;;;;5016629;28;20184;-68
2023/06/08 07:37:37;;;;;;;12.40;11.20;;;21.60;99.90;;;;;;5014568;28;20436;-68
2023/06/08 07:40:11;;;;;;;13.87;12.57;;;21.60;99.90;;;;;;5013112;28;20292;-68
2023/06/08 07:42:37;;;;;;;15.93;11.50;;;21.60;99.90;;;;;;5017451;28;20272;-68
2023/06/08 07:45:03;;;;;;;15.33;14.03;;;21.70;99.90;;;;;;5018396;28;20520;-68
2023/06/08 07:47:28;;;;;;;11.73;10.70;;;21.70;99.90;;;;;;5012528;28;20450;-68
2023/06/08 07:49:55;;;;;;;11.90;10.90;;;21.80;99.90;;;;;;5013042;28;20901;-68
2023/06/08 07:52:20;;;;;;;13.13;12.03;;;21.80;99.90;;;;;;5012264;28;20184;-68
2023/06/08 07:54:46;;;;;;;12.53;11.33;;;21.80;99.90;;;;;;5004618;28;20439;-68
2023/06/08 07:57:13;;;;;;;13.57;12.17;;;21.90;99.80;;;;;;5006767;28;20189;-68
2023/06/08 07:59:38;;;;;;;13.00;11.77;;;22.00;99.80;;;;;;5010528;28;20204;-67
2023/06/08 08:02:08;;;;;;;12.53;11.47;;;22.00;99.60;;;;;;5015401;28;20434;-67
2023/06/08 08:04:33;;;;;;;12.40;11.40;;;22.00;99.50;;;;;;5010622;28;20664;-68
2023/06/08 08:06:59;;;;;;;14.70;13.20;;;22.00;99.60;;;;;;5013421;28;20435;-68
2023/06/08 08:09:25;;;;;;;14.27;12.90;;;22.00;99.70;;;;;;5010099;28;20208;-67
2023/06/08 08:11:50;;;;;;;14.10;12.70;;;22.00;99.80;;;;;;5013183;28;20185;-68
2023/06/08 08:14:16;;;;;;;15.07;13.57;;;22.00;99.90;;;;;;5010907;28;20192;-68
2023/06/08 08:16:41;;;;;;;15.73;14.33;;;22.10;99.90;;;;;;5012853;28;20184;-68
2023/06/08 08:19:07;;;;;;;15.87;14.30;;;22.00;99.90;;;;;;5014421;28;20673;-69
2023/06/08 08:21:32;;;;;;;16.40;14.80;;;22.00;99.90;;;;;;5012811;28;20185;-68
2023/06/08 08:23:58;;;;;;;15.67;14.13;;;22.00;99.90;;;;;;5019317;28;20176;-67
2023/06/08 08:26:24;;;;;;;14.87;13.57;;;22.00;99.90;;;;;;5011149;28;20234;-67
2023/06/08 08:28:49;;;;;;;15.40;14.10;;;22.10;99.90;;;;;;5017877;28;20794;-68
2023/06/08 08:31:15;;;;;;;16.43;12.70;;;22.10;99.90;;;;;;5013890;28;20204;-69
2023/06/08 08:33:43;;;;;;;13.93;12.03;;;22.10;99.90;;;;;;5019346;28;20686;-68
2023/06/08 08:36:08;;;;;;;13.10;11.80;;;22.20;99.90;;;;;;5013078;28;20195;-69
2023/06/08 08:38:34;;;;;;;14.10;12.80;;;22.20;99.90;;;;;;5015884;28;20463;-69
2023/06/08 08:41:05;;;;;;;14.00;12.67;;;22.20;99.90;;;;;;5008350;28;20585;-68
2023/06/08 08:43:35;;;;;;;13.67;12.57;;;22.30;99.90;;;;;;5013493;28;20183;-70
2023/06/08 08:46:02;;;;;;;14.17;12.97;;;22.30;99.90;;;;;;5020521;28;20423;-70
2023/06/08 08:48:31;;;;;;;13.00;11.90;;;22.40;99.90;;;;;;5017527;28;20463;-70
2023/06/08 08:50:58;;;;;;;18.13;15.40;;;22.40;99.90;;;;;;5010326;28;20934;-70
2023/06/08 08:53:27;;;;;;;13.53;11.93;;;22.50;99.90;;;;;;5013576;28;20467;-69
2023/06/08 08:55:55;;;;;;;12.77;11.67;;;22.60;99.90;;;;;;5016773;28;20504;-69
2023/06/08 08:58:21;;;;;;;10.03;9.20;;;22.60;99.90;;;;;;5011800;28;20464;-69
2023/06/08 09:00:50;;;;;;;9.60;8.80;;;22.60;99.90;;;;;;5013523;28;20514;-68
2023/06/08 09:03:16;;;;;;;9.00;8.20;;;22.60;99.90;;;;;;5008671;28;20467;-69
2023/06/08 09:05:45;;;;;;;8.30;7.50;;;22.80;99.90;;;;;;5020537;28;20525;-68
2023/06/08 09:08:11;;;;;;;8.33;7.60;;;22.80;98.40;;;;;;5015292;28;20551;-69
2023/06/08 09:10:37;;;;;;;13.23;11.80;;;22.80;98.40;;;;;;5018564;28;20537;-68
2023/06/08 09:13:03;;;;;;;8.37;7.50;;;22.90;98.10;;;;;;5012293;28;21088;-68
2023/06/08 09:15:34;;;;;;;7.13;6.50;;;23.10;98.10;;;;;;5011840;28;20192;-68
2023/06/08 09:18:13;;;;;;;7.20;6.50;;;23.20;97.50;;;;;;5014559;28;20192;-69
2023/06/08 09:20:39;;;;;;;12.67;11.47;;;23.40;96.50;;;;;;5011248;28;20569;-69
2023/06/08 09:23:15;;;;;;;7.77;7.07;;;23.50;95.90;;;;;;5010009;28;20946;-67
2023/06/08 09:25:41;;;;;;;6.80;6.17;;;23.60;95.50;;;;;;5010258;28;20435;-68
2023/06/08 09:28:15;;;;;;;6.47;5.63;;;23.70;93.80;;;;;;5016629;28;20438;-67
2023/06/08 09:30:41;;;;;;;7.50;6.90;;;23.90;92.40;;;;;;5011766;28;20447;-67
2023/06/08 09:33:27;;;;;;;8.67;7.87;;;24.00;91.40;;;;;;5013966;28;21012;-67
2023/06/08 09:35:59;;;;;;;7.10;6.50;;;24.10;91.00;;;;;;5017785;28;20505;-69
2023/06/08 09:38:27;;;;;;;8.07;7.30;;;24.20;90.40;;;;;;5010889;28;21002;-67
2023/06/08 09:41:19;;;;;;;8.00;7.30;;;24.40;89.50;;;;;;5011679;28;20459;-67
2023/06/08 09:43:47;;;;;;;11.83;8.10;;;24.50;89.90;;;;;;5015456;28;20441;-67
2023/06/08 09:46:16;;;;;;;8.30;7.50;;;24.60;89.00;;;;;;5013238;28;20435;-67
2023/06/08 09:48:52;;;;;;;8.53;7.70;;;24.70;87.70;;;;;;5018914;28;20971;-67
2023/06/08 09:51:19;;;;;;;8.23;7.53;;;24.80;84.00;;;;;;5010653;28;20432;-68
2023/06/08 09:53:45;;;;;;;8.70;8.00;;;24.90;84.50;;;;;;5011831;28;20527;-67
2023/06/08 09:56:14;;;;;;;9.37;8.57;;;24.90;85.80;;;;;;5005947;28;20439;-67
2023/06/08 09:58:44;;;;;;;9.33;8.43;;;25.00;85.10;;;;;;5013277;28;20792;-67
2023/06/08 10:01:12;;;;;;;12.70;8.17;;;25.00;85.50;;;;;;5015158;28;20501;-67
2023/06/08 10:03:39;;;;;;;8.77;8.07;;;25.10;85.50;;;;;;5008935;28;20432;-68
2023/06/08 10:06:09;;;;;;;10.00;8.50;;;25.10;85.20;;;;;;5015220;28;20474;-67
2023/06/08 10:08:38;;;;;;;8.00;7.30;;;25.10;84.30;;;;;;5009319;28;20450;-68
2023/06/08 10:11:04;;;;;;;7.60;6.97;;;25.20;84.10;;;;;;5012262;28;20890;-68
2023/06/08 10:13:31;;;;;;;8.07;7.37;;;25.20;83.30;;;;;;5011679;28;20435;-68
2023/06/08 10:15:56;;;;;;;8.00;7.30;;;25.30;82.30;;;;;;5006748;28;20481;-68
2023/06/08 10:18:23;;;;;;;8.80;8.00;;;25.30;80.00;;;;;;5011677;28;20553;-68
2023/06/08 10:20:49;;;;;;;8.13;7.43;;;25.40;79.10;;;;;;5011392;28;20462;-68
2023/06/08 10:23:15;;;;;;;9.57;8.57;;;25.40;79.30;;;;;;5005959;28;20442;-69
2023/06/08 10:25:41;;;;;;;7.97;7.27;;;25.50;78.90;;;;;;5007247;28;20203;-69
2023/06/08 10:28:08;;;;;;;8.30;7.60;;;25.50;77.10;;;;;;5017384;28;20449;-69
2023/06/08 10:30:44;;;;;;;8.57;7.80;;;25.50;76.00;;;;;;5006660;28;20524;-69
2023/06/08 10:33:15;;;;;;;8.87;8.07;;;25.60;75.80;;;;;;5012954;28;20881;-69
2023/06/08 10:35:41;;;;;;;9.67;8.17;;;25.60;74.70;;;;;;5007445;28;20439;-69
2023/06/08 10:38:14;;;;;;;9.30;8.40;;;25.70;74.40;;;;;;5012042;28;20435;-68
2023/06/08 10:40:49;;;;;;;8.97;8.20;;;25.70;74.70;;;;;;5009496;28;20479;-69
2023/06/08 10:43:15;;;;;;;13.13;9.17;;;25.80;74.90;;;;;;5012620;28;20423;-69
2023/06/08 10:45:43;;;;;;;9.23;8.37;;;25.90;74.80;;;;;;5013643;28;20419;-69
2023/06/08 10:48:13;;;;;;;8.53;7.70;;;26.00;75.00;;;;;;5011712;28;20949;-69
2023/06/08 10:50:44;;;;;;;9.10;7.60;;;26.00;74.90;;;;;;5014378;28;20798;-69
2023/06/08 10:53:10;;;;;;;11.43;8.37;;;26.10;74.10;;;;;;5021592;28;20455;-69
2023/06/08 10:55:35;;;;;;;8.13;7.50;;;26.20;73.70;;;;;;5010395;28;21129;-67
2023/06/08 10:58:16;;;;;;;8.07;7.40;;;26.20;73.30;;;;;;5010197;28;20181;-69
2023/06/08 11:00:43;;;;;;;8.53;7.73;;;26.30;72.40;;;;;;5016892;28;20212;-69
2023/06/08 11:03:13;;;;;;;10.33;8.90;;;26.40;70.10;;;;;;5021340;28;20421;-69
2023/06/08 11:05:45;;;;;;;9.33;8.43;;;26.50;69.60;;;;;;5024673;28;20513;-69
2023/06/08 11:08:11;;;;;;;9.00;8.20;;;26.60;69.40;;;;;;5014275;28;20415;-69
2023/06/08 11:10:39;;;;;;;8.40;7.70;;;26.60;68.70;;;;;;5013022;28;20440;-69
2023/06/08 11:13:09;;;;;;;8.90;7.67;;;26.80;68.50;;;;;;5012755;28;20435;-69
2023/06/08 11:15:39;;;;;;;9.30;8.50;;;26.90;67.00;;;;;;5013193;28;20482;-69
2023/06/08 11:18:07;;;;;;;8.20;7.40;;;26.90;66.60;;;;;;5010671;28;20524;-68
2023/06/08 11:20:35;;;;;;;8.07;7.30;;;27.00;65.60;;;;;;5008471;28;20468;-68
2023/06/08 11:23:02;;;;;;;7.53;6.83;;;27.10;64.90;;;;;;5015234;28;20624;-68
2023/06/08 11:25:28;;;;;;;7.30;6.70;;;27.30;64.00;;;;;;5007736;28;20789;-68
2023/06/08 11:27:55;;;;;;;7.90;6.80;;;27.40;61.10;;;;;;5021439;28;20438;-68
2023/06/08 11:30:22;;;;;;;8.63;7.83;;;27.50;60.30;;;;;;5011879;28;20446;-68
2023/06/08 11:32:50;;;;;;;7.87;7.10;;;27.60;59.60;;;;;;5016555;28;20435;-68
2023/06/08 11:35:21;;;;;;;7.83;7.13;;;27.60;59.50;;;;;;5015869;28;20415;-68
2023/06/08 11:37:55;;;;;;;7.63;6.73;;;27.70;59.40;;;;;;5013212;28;20926;-68
2023/06/08 11:40:20;;;;;;;7.80;7.10;;;28.00;58.10;;;;;;5016998;28;20474;-68
2023/06/08 11:42:46;;;;;;;6.80;6.20;;;28.10;56.90;;;;;;5013828;28;20462;-68
2023/06/08 11:45:15;;;;;;;8.93;6.40;;;28.20;55.30;;;;;;5016670;28;20279;-68
2023/06/08 11:47:42;;;;;;;7.13;6.60;;;28.30;54.00;;;;;;5014170;28;20215;-68
2023/06/08 11:50:08;;;;;;;7.13;6.53;;;28.50;54.00;;;;;;5017063;28;21309;-68
2023/06/08 11:52:35;;;;;;;7.37;6.60;;;28.70;54.20;;;;;;5013400;28;22424;-69
2023/06/08 11:55:16;;;;;;;6.57;6.07;;;28.80;53.00;;;;;;5014236;28;20810;-69
2023/06/08 11:57:51;;;;;;;6.70;6.20;;;29.10;52.60;;;;;;5015475;28;20443;-70
2023/06/08 12:00:31;;;;;;;11.67;10.60;;;29.30;51.80;;;;;;5005306;28;20466;-69
2023/06/08 12:02:58;;;;;;;10.10;9.23;;;29.80;51.80;;;;;;5011060;28;20977;-69
2023/06/08 12:05:23;;;;;;;8.50;7.70;;;30.60;50.30;;;;;;5009738;28;20453;-69
2023/06/08 12:07:53;;;;;;;6.00;5.50;;;32.00;48.30;;;;;;5023038;28;20959;-69
2023/06/08 12:10:18;;;;;;;5.00;4.60;;;33.20;45.00;;;;;;5004681;28;20253;-70
2023/06/08 12:12:44;;;;;;;11.87;10.97;;;34.00;43.20;;;;;;5013367;28;20441;-67
2023/06/08 12:15:16;;;;;;;6.03;5.53;;;34.70;42.80;;;;;;5013109;28;20188;-70
2023/06/08 12:17:42;;;;;;;6.80;6.30;;;35.20;41.10;;;;;;5012235;28;20193;-70
2023/06/08 12:20:08;;;;;;;6.03;5.53;;;35.30;39.60;;;;;;5007157;28;20866;-70
2023/06/08 12:22:34;;;;;;;6.37;5.77;;;35.20;38.90;;;;;;5013490;28;20439;-70
2023/06/08 12:25:00;;;;;;;6.50;5.90;;;35.10;39.10;;;;;;5010791;28;20432;-69
2023/06/08 12:27:29;;;;;;;6.10;5.43;;;35.10;39.80;;;;;;5012447;28;20706;-68
2023/06/08 12:29:56;;;;;;;5.67;5.23;;;35.00;40.20;;;;;;5005602;28;20204;-68
2023/06/08 12:32:23;;;;;;;6.53;6.00;;;35.10;40.10;;;;;;5010654;28;20467;-69
2023/06/08 12:34:48;;;;;;;6.47;5.97;;;35.00;39.50;;;;;;5012150;28;20953;-69
2023/06/08 12:37:14;;;;;;;6.17;5.67;;;34.90;39.70;;;;;;5011018;28;20534;-68
2023/06/08 12:39:39;;;;;;;7.43;6.50;;;34.90;40.10;;;;;;5011248;28;20213;-68
2023/06/08 12:42:06;;;;;;;7.23;6.60;;;34.90;39.70;;;;;;5016961;28;20185;-69